< < Back
Terminal Aerodrome Forecast


Current Version              Previous Versions:   1  2  3  4  5  6  7  8  9  

Terminal Aerodrome Forecast

520
FTUS44 KOHX 251100
TAFCSV
TAF
KCSV 251133Z 2512/2612 19011KT 6SM -SHRA VCTS BKN010 OVC020CB
     FM251500 22012KT P6SM VCTS BKN025CB BKN050
     FM251900 23012G22KT P6SM VCTS BKN050CB
     FM260000 23010KT 6SM -SHRA BKN035 BKN050
     FM260600 29010KT P6SM BKN025 OVC035
     FM260900 31007KT 4SM BR OVC008=



Latest METAR

932
SAUS70 KWBC 251600 RRG
MTRCSV
METAR KCSV 251553Z AUTO 19007G16KT 120V220 10SM BKN014 18/13 A2974 RMK
AO2 SLP057 T01830133


USA.gov is the U.S. government's official web portal to all federal, state and local government web resources and services.